createdAt,value
2022-09-13T00:01:41.889Z,99633.06
2022-09-13T00:04:09.763Z,99644.75
2022-09-13T00:06:37.148Z,99641.44
2022-09-13T00:09:04.513Z,99641.63
2022-09-13T00:11:32.125Z,99639.47
2022-09-13T00:13:59.770Z,99641.31
2022-09-13T00:16:29.717Z,99644.28
2022-09-13T00:18:57.498Z,99644.94
2022-09-13T00:21:25.168Z,99641.59
2022-09-13T00:23:54.084Z,99637.63
2022-09-13T00:26:27.779Z,99636.13
2022-09-13T00:28:57.342Z,99626.91
2022-09-13T00:31:27.585Z,99637.63
2022-09-13T00:33:55.875Z,99629.00
2022-09-13T00:36:23.264Z,99624.44
2022-09-13T00:38:50.912Z,99632.63
2022-09-13T00:41:20.634Z,99624.72
2022-09-13T00:43:59.969Z,99630.91
2022-09-13T00:46:47.949Z,99632.41
2022-09-13T00:49:20.317Z,99636.66
2022-09-13T00:52:00.751Z,99634.41
2022-09-13T00:54:31.126Z,99633.94
2022-09-13T00:57:00.200Z,99631.94
2022-09-13T00:59:45.678Z,99623.75
2022-09-13T01:02:13.707Z,99626.75
2022-09-13T01:04:41.724Z,99623.97
2022-09-13T01:07:11.961Z,99623.12
2022-09-13T01:09:44.175Z,99622.19
2022-09-13T01:13:11.210Z,99627.72
2022-09-13T01:15:39.002Z,99629.81
2022-09-13T01:18:07.508Z,99629.88
2022-09-13T01:20:48.357Z,99632.94
2022-09-13T01:23:40.527Z,99635.34
2022-09-13T01:26:47.658Z,99621.25
2022-09-13T01:30:01.879Z,99628.53
2022-09-13T01:32:53.343Z,99631.38
2022-09-13T01:35:29.101Z,99628.06
2022-09-13T01:38:14.980Z,99629.47
2022-09-13T01:41:14.268Z,99623.28
2022-09-13T01:44:16.680Z,99627.50
2022-09-13T01:47:17.283Z,99622.09
2022-09-13T01:50:12.606Z,99625.44
2022-09-13T01:52:54.522Z,99622.63
2022-09-13T01:55:40.133Z,99618.69
2022-09-13T01:58:30.955Z,99612.06
2022-09-13T02:01:09.530Z,99610.47
2022-09-13T02:03:41.068Z,99606.16
2022-09-13T02:06:12.108Z,99613.16
2022-09-13T02:08:42.727Z,99608.69
2022-09-13T02:11:12.884Z,99602.81
2022-09-13T02:13:45.417Z,99603.97
2022-09-13T02:16:32.710Z,99600.59
2022-09-13T02:19:05.538Z,99604.16
2022-09-13T02:21:39.224Z,99603.81
2022-09-13T02:24:17.195Z,99606.66
2022-09-13T02:26:46.701Z,99610.66
2022-09-13T02:29:18.113Z,99601.62
2022-09-13T02:31:55.840Z,99591.63
2022-09-13T02:34:30.507Z,99584.94
2022-09-13T02:36:58.656Z,99593.03
2022-09-13T02:39:27.394Z,99596.28
2022-09-13T02:42:25.908Z,99593.22
2022-09-13T02:44:54.705Z,99594.59
2022-09-13T02:47:40.480Z,99597.69
2022-09-13T02:50:46.994Z,99591.34
2022-09-13T02:53:35.511Z,99593.84
2022-09-13T02:56:26.974Z,99587.47
2022-09-13T02:59:29.933Z,99585.72
2022-09-13T03:02:05.510Z,99580.75
2022-09-13T03:04:33.673Z,99582.34
2022-09-13T03:07:04.531Z,99570.25
2022-09-13T03:09:32.258Z,99571.53
2022-09-13T03:12:14.524Z,99570.66
2022-09-13T03:14:55.417Z,99568.63
2022-09-13T03:17:37.004Z,99564.09
2022-09-13T03:20:37.292Z,99565.22
2022-09-13T03:23:19.648Z,99562.22
2022-09-13T03:25:50.137Z,99555.50
2022-09-13T03:28:44.006Z,99564.78
2022-09-13T03:31:54.927Z,99554.25
2022-09-13T03:34:30.874Z,99563.19
2022-09-13T03:37:05.400Z,99556.00
2022-09-13T03:39:41.927Z,99554.19
2022-09-13T03:42:25.342Z,99559.81
2022-09-13T03:44:55.964Z,99558.78
2022-09-13T03:47:25.819Z,99547.25
2022-09-13T03:49:53.684Z,99546.91
2022-09-13T03:52:21.037Z,99552.72
2022-09-13T03:54:48.784Z,99547.47
2022-09-13T03:57:21.174Z,99542.16
2022-09-13T03:59:51.405Z,99543.66
2022-09-13T04:02:19.903Z,99546.44
2022-09-13T04:04:48.517Z,99548.47
2022-09-13T04:07:21.729Z,99550.94
2022-09-13T04:09:50.572Z,99552.13
2022-09-13T04:12:19.010Z,99554.19
2022-09-13T04:14:47.365Z,99554.50
2022-09-13T04:17:15.649Z,99558.91
2022-09-13T04:19:45.666Z,99554.91
2022-09-13T04:22:13.735Z,99553.34
2022-09-13T04:24:43.308Z,99561.88
2022-09-13T04:27:10.699Z,99559.56
2022-09-13T04:29:38.253Z,99563.94
2022-09-13T04:32:06.066Z,99560.38
2022-09-13T04:34:33.464Z,99559.09
2022-09-13T04:37:00.835Z,99555.72
2022-09-13T04:39:28.844Z,99569.16
2022-09-13T04:41:56.772Z,99562.34
2022-09-13T04:44:24.544Z,99564.06
2022-09-13T04:46:52.680Z,99553.34
2022-09-13T04:49:23.050Z,99556.97
2022-09-13T04:51:50.735Z,99554.16
2022-09-13T04:54:18.393Z,99561.81
2022-09-13T04:56:45.863Z,99568.38
2022-09-13T04:59:13.926Z,99560.38
2022-09-13T05:01:41.940Z,99559.66
2022-09-13T05:04:10.164Z,99562.38
2022-09-13T05:06:37.820Z,99563.41
2022-09-13T05:09:05.592Z,99570.19
2022-09-13T05:11:33.397Z,99569.09
2022-09-13T05:14:01.273Z,99567.91
2022-09-13T05:16:31.289Z,99565.81
2022-09-13T05:18:59.197Z,99568.97
2022-09-13T05:21:30.124Z,99568.31
2022-09-13T05:23:58.235Z,99574.97
2022-09-13T05:26:31.404Z,99575.91
2022-09-13T05:29:00.184Z,99574.97
2022-09-13T05:31:33.763Z,99572.47
2022-09-13T05:34:05.153Z,99577.00
2022-09-13T05:36:33.174Z,99567.31
2022-09-13T05:39:28.461Z,99578.69
2022-09-13T05:41:48.814Z,99566.59
2022-09-13T05:44:16.470Z,99577.00
2022-09-13T05:46:47.023Z,99569.50
2022-09-13T05:49:14.478Z,99573.09
2022-09-13T05:51:42.393Z,99567.66
2022-09-13T05:54:12.396Z,99574.06
2022-09-13T05:56:39.890Z,99577.09
2022-09-13T05:59:08.986Z,99579.97
2022-09-13T06:01:36.855Z,99581.13
2022-09-13T06:04:04.768Z,99585.62
2022-09-13T06:06:32.114Z,99588.78
2022-09-13T06:08:59.526Z,99592.13
2022-09-13T06:11:27.256Z,99586.72
2022-09-13T06:13:54.617Z,99581.37
2022-09-13T06:16:22.223Z,99583.66
2022-09-13T06:18:50.489Z,99582.97
2022-09-13T06:21:25.914Z,99571.84
2022-09-13T06:23:56.873Z,99580.97
2022-09-13T06:26:26.297Z,99581.69
2022-09-13T06:28:57.088Z,99580.34
2022-09-13T06:31:27.264Z,99582.28
2022-09-13T06:33:57.662Z,99581.31
2022-09-13T06:36:25.690Z,99578.97
2022-09-13T06:38:53.068Z,99578.09
2022-09-13T06:41:23.307Z,99583.84
2022-09-13T06:44:01.090Z,99580.28
2022-09-13T06:46:30.183Z,99581.31
2022-09-13T06:49:03.475Z,99568.84
2022-09-13T06:51:31.431Z,99575.03
2022-09-13T06:54:00.199Z,99573.66
2022-09-13T06:56:30.839Z,99574.41
2022-09-13T06:59:00.441Z,99583.50
2022-09-13T07:01:30.667Z,99582.81
2022-09-13T07:04:01.126Z,99581.44
2022-09-13T07:06:34.329Z,99586.53
2022-09-13T07:09:03.666Z,99589.84
2022-09-13T07:11:34.200Z,99589.50
2022-09-13T07:14:01.701Z,99582.72
2022-09-13T07:16:31.175Z,99596.47
2022-09-13T07:19:00.664Z,99588.44
2022-09-13T07:21:28.909Z,99589.56
2022-09-13T07:23:56.993Z,99584.78
2022-09-13T07:26:27.433Z,99603.84
2022-09-13T07:28:56.680Z,99601.59
2022-09-13T07:31:30.196Z,99599.22
2022-09-13T07:33:59.749Z,99602.94
2022-09-13T07:36:28.888Z,99600.59
2022-09-13T07:38:56.336Z,99601.72
2022-09-13T07:41:25.466Z,99593.22
2022-09-13T07:43:53.059Z,99601.19
2022-09-13T07:46:25.476Z,99599.19
2022-09-13T07:48:55.464Z,99600.34
2022-09-13T07:51:30.612Z,99608.53
2022-09-13T07:54:02.298Z,99605.88
2022-09-13T07:56:32.187Z,99606.72
2022-09-13T07:59:01.639Z,99605.84
2022-09-13T08:01:37.035Z,99607.69
2022-09-13T08:04:09.983Z,99600.16
2022-09-13T08:06:38.703Z,99613.00
2022-09-13T08:09:08.106Z,99607.16
2022-09-13T08:11:49.319Z,99598.72
2022-09-13T08:14:18.416Z,99604.75
2022-09-13T08:16:45.932Z,99602.47
2022-09-13T08:19:15.885Z,99602.25
2022-09-13T08:21:44.508Z,99606.03
2022-09-13T08:24:19.657Z,99605.47
2022-09-13T08:26:47.804Z,99611.28
2022-09-13T08:29:15.680Z,99603.19
2022-09-13T08:31:43.383Z,99602.84
2022-09-13T08:34:12.982Z,99601.19
2022-09-13T08:36:41.246Z,99602.28
2022-09-13T08:39:09.235Z,99600.62
2022-09-13T08:41:45.304Z,99594.88
2022-09-13T08:44:35.469Z,99599.88
2022-09-13T08:47:28.089Z,99600.72
2022-09-13T08:50:18.727Z,99593.88
2022-09-13T08:53:22.515Z,99593.66
2022-09-13T08:56:22.613Z,99593.38
2022-09-13T08:59:18.168Z,99589.47
2022-09-13T09:02:10.570Z,99593.66
2022-09-13T09:04:44.433Z,99594.16
2022-09-13T09:07:21.524Z,99590.41
2022-09-13T09:09:53.091Z,99587.09
2022-09-13T09:12:26.139Z,99592.00
2022-09-13T09:15:25.010Z,99585.56
2022-09-13T09:17:59.966Z,99585.44
2022-09-13T09:20:32.875Z,99587.09
2022-09-13T09:23:07.173Z,99586.06
2022-09-13T09:25:35.047Z,99577.56
2022-09-13T09:28:11.419Z,99577.94
2022-09-13T09:31:02.300Z,99577.13
2022-09-13T09:33:59.667Z,99576.03
2022-09-13T09:36:50.018Z,99564.22
2022-09-13T09:39:17.525Z,99561.69
2022-09-13T09:41:45.755Z,99567.09
2022-09-13T09:44:24.571Z,99566.87
2022-09-13T09:46:57.256Z,99564.59
2022-09-13T09:49:56.913Z,99563.78
2022-09-13T09:52:30.003Z,99568.34
2022-09-13T09:55:02.883Z,99549.81
2022-09-13T09:57:49.963Z,99546.03
2022-09-13T10:00:17.873Z,99548.78
2022-09-13T10:02:46.155Z,99535.47
2022-09-13T10:05:14.247Z,99535.78
2022-09-13T10:07:41.837Z,99529.97
2022-09-13T10:10:29.719Z,99527.47
2022-09-13T10:12:57.412Z,99524.59
2022-09-13T10:15:29.244Z,99519.66
2022-09-13T10:18:42.422Z,99522.94
2022-09-13T10:21:24.820Z,99530.53
2022-09-13T10:23:52.482Z,99524.31
2022-09-13T10:26:25.513Z,99531.50
2022-09-13T10:28:58.637Z,99518.34
2022-09-13T10:31:36.725Z,99522.06
2022-09-13T10:34:13.910Z,99509.66
2022-09-13T10:36:53.191Z,99513.31
2022-09-13T10:39:22.808Z,99506.97
2022-09-13T10:41:54.269Z,99509.94
2022-09-13T10:44:34.257Z,99509.84
2022-09-13T10:47:05.195Z,99510.28
2022-09-13T10:49:43.049Z,99517.59
2022-09-13T10:52:33.825Z,99499.78
2022-09-13T10:55:19.777Z,99504.69
2022-09-13T10:57:49.007Z,99509.81
2022-09-13T11:00:40.008Z,99507.38
2022-09-13T11:03:23.493Z,99503.41
2022-09-13T11:05:56.610Z,99496.34
2022-09-13T11:08:30.392Z,99500.72
2022-09-13T11:11:07.870Z,99498.06
2022-09-13T11:13:55.141Z,99489.41
2022-09-13T11:16:59.102Z,99491.44
2022-09-13T11:19:46.653Z,99486.91
2022-09-13T11:22:26.154Z,99491.66
2022-09-13T11:25:18.835Z,99483.75
2022-09-13T11:27:55.192Z,99493.34
2022-09-13T11:30:30.080Z,99485.63
2022-09-13T11:32:57.941Z,99480.06
2022-09-13T11:35:38.262Z,99485.28
2022-09-13T11:38:05.885Z,99479.88
2022-09-13T11:40:48.846Z,99477.75
2022-09-13T11:43:33.328Z,99470.94
2022-09-13T11:46:19.405Z,99462.31
2022-09-13T11:49:13.139Z,99465.03
2022-09-13T11:52:16.964Z,99456.62
2022-09-13T11:55:04.698Z,99453.75
2022-09-13T11:57:42.343Z,99448.56
2022-09-13T12:00:24.825Z,99450.81
2022-09-13T12:03:00.410Z,99448.44
2022-09-13T12:05:34.886Z,99440.78
2022-09-13T12:08:21.545Z,99446.22
2022-09-13T12:11:33.175Z,99451.06
2022-09-13T12:14:11.973Z,99454.50
2022-09-13T12:16:45.103Z,99452.13
2022-09-13T12:19:37.713Z,99448.47
2022-09-13T12:22:07.117Z,99444.53
2022-09-13T12:24:37.969Z,99438.19
2022-09-13T12:27:28.334Z,99431.06
2022-09-13T12:30:28.274Z,99431.59
2022-09-13T12:32:58.960Z,99428.28
2022-09-13T12:35:49.287Z,99425.12
2022-09-13T12:38:56.027Z,99425.44
2022-09-13T12:41:59.162Z,99430.06
2022-09-13T12:44:36.738Z,99430.63
2022-09-13T12:47:22.212Z,99419.78
2022-09-13T12:50:15.121Z,99414.50
2022-09-13T12:52:57.568Z,99417.88
2022-09-13T12:55:46.060Z,99413.25
2022-09-13T12:58:34.896Z,99417.88
2022-09-13T13:01:29.334Z,99415.00
2022-09-13T13:04:03.495Z,99412.84
2022-09-13T13:06:34.474Z,99418.44
2022-09-13T13:09:06.806Z,99406.97
2022-09-13T13:11:46.381Z,99408.50
2022-09-13T13:14:45.217Z,99404.31
2022-09-13T13:17:37.762Z,99408.19
2022-09-13T13:20:43.167Z,99401.09
2022-09-13T13:23:39.118Z,99405.44
2022-09-13T13:26:20.823Z,99400.94
2022-09-13T13:28:52.096Z,99395.06
2022-09-13T13:31:32.258Z,99397.25
2022-09-13T13:34:14.973Z,99400.25
2022-09-13T13:36:42.633Z,99395.81
2022-09-13T13:39:24.981Z,99382.88
2022-09-13T13:41:55.604Z,99390.34
2022-09-13T13:44:22.917Z,99387.47
2022-09-13T13:47:08.842Z,99383.78
2022-09-13T13:49:39.111Z,99376.59
2022-09-13T13:52:09.363Z,99369.00
2022-09-13T13:54:49.361Z,99365.16
2022-09-13T13:57:44.255Z,99374.66
2022-09-13T14:00:23.690Z,99372.06
2022-09-13T14:02:53.493Z,99379.88
2022-09-13T14:06:02.697Z,99380.44
2022-09-13T14:08:36.482Z,99377.28
2022-09-13T14:11:19.165Z,99366.78
2022-09-13T14:14:09.273Z,99361.53
2022-09-13T14:16:58.081Z,99366.97
2022-09-13T14:19:27.374Z,99362.03
2022-09-13T14:22:25.306Z,99368.69
2022-09-13T14:25:17.325Z,99358.25
2022-09-13T14:27:45.713Z,99358.53
2022-09-13T14:30:27.488Z,99347.22
2022-09-13T14:32:57.200Z,99344.34
2022-09-13T14:35:30.379Z,99345.41
2022-09-13T14:38:18.830Z,99345.66
2022-09-13T14:40:52.155Z,99348.31
2022-09-13T14:43:22.934Z,99343.03
2022-09-13T14:45:55.485Z,99340.78
2022-09-13T14:48:30.180Z,99337.06
2022-09-13T14:51:01.310Z,99342.16
2022-09-13T14:53:31.733Z,99337.69
2022-09-13T14:56:06.093Z,99331.56
2022-09-13T14:58:44.417Z,99328.16
2022-09-13T15:01:18.948Z,99321.78
2022-09-13T15:03:47.524Z,99328.31
2022-09-13T15:06:38.689Z,99322.53
2022-09-13T15:09:12.054Z,99324.47
2022-09-13T15:11:56.563Z,99325.56
2022-09-13T15:14:35.393Z,99315.53
2022-09-13T15:17:06.074Z,99314.03
2022-09-13T15:19:41.531Z,99319.47
2022-09-13T15:22:16.669Z,99313.53
2022-09-13T15:24:46.877Z,99305.88
2022-09-13T15:27:44.846Z,99311.69
2022-09-13T15:30:30.154Z,99304.88
2022-09-13T15:33:11.574Z,99297.31
2022-09-13T15:35:42.957Z,99289.81
2022-09-13T15:38:26.294Z,99294.94
2022-09-13T15:41:16.906Z,99288.19
2022-09-13T15:43:45.265Z,99288.28
2022-09-13T15:46:15.256Z,99294.28
2022-09-13T15:48:51.735Z,99288.09
2022-09-13T15:51:19.688Z,99289.44
2022-09-13T15:53:47.187Z,99287.69
2022-09-13T15:56:17.832Z,99289.12
2022-09-13T15:58:45.591Z,99282.31
2022-09-13T16:01:14.282Z,99282.44
2022-09-13T16:03:42.114Z,99278.28
2022-09-13T16:06:09.821Z,99271.31
2022-09-13T16:08:37.813Z,99262.22
2022-09-13T16:11:06.185Z,99262.13
2022-09-13T16:13:33.797Z,99267.72
2022-09-13T16:16:01.806Z,99259.69
2022-09-13T16:18:29.505Z,99257.81
2022-09-13T16:20:57.269Z,99255.09
2022-09-13T16:23:24.804Z,99265.12
2022-09-13T16:25:57.527Z,99264.13
2022-09-13T16:28:25.403Z,99254.81
2022-09-13T16:30:53.901Z,99251.25
2022-09-13T16:33:21.435Z,99257.41
2022-09-13T16:35:49.202Z,99253.34
2022-09-13T16:38:16.860Z,99253.47
2022-09-13T16:40:45.420Z,99253.87
2022-09-13T16:43:13.744Z,99255.59
2022-09-13T16:45:41.955Z,99250.22
2022-09-13T16:48:09.407Z,99248.84
2022-09-13T16:50:40.230Z,99247.50
2022-09-13T16:53:08.143Z,99248.91
2022-09-13T16:55:36.059Z,99245.06
2022-09-13T16:58:03.772Z,99245.38
2022-09-13T17:00:31.497Z,99248.25
2022-09-13T17:02:59.090Z,99245.00
2022-09-13T17:05:26.755Z,99255.44
2022-09-13T17:07:54.149Z,99258.03
2022-09-13T17:10:21.773Z,99258.78
2022-09-13T17:12:49.498Z,99260.34
2022-09-13T17:15:17.044Z,99260.59
2022-09-13T17:17:44.481Z,99273.78
2022-09-13T17:20:13.303Z,99267.22
2022-09-13T17:22:41.617Z,99264.25
2022-09-13T17:25:09.509Z,99252.28
2022-09-13T17:27:37.238Z,99259.47
2022-09-13T17:30:05.303Z,99251.19
2022-09-13T17:32:32.856Z,99267.63
2022-09-13T17:35:01.035Z,99254.47
2022-09-13T17:37:28.667Z,99258.91
2022-09-13T17:40:08.002Z,99261.41
2022-09-13T17:42:36.010Z,99256.75
2022-09-13T17:45:03.699Z,99259.00
2022-09-13T17:47:31.360Z,99257.16
2022-09-13T17:49:59.296Z,99251.00
2022-09-13T17:52:26.813Z,99251.72
2022-09-13T17:54:54.574Z,99255.41
2022-09-13T17:57:22.472Z,99253.16
2022-09-13T17:59:50.149Z,99251.94
2022-09-13T18:02:18.122Z,99259.03
2022-09-13T18:04:46.404Z,99267.75
2022-09-13T18:07:14.316Z,99262.78
2022-09-13T18:09:41.811Z,99261.50
2022-09-13T18:12:10.269Z,99265.69
2022-09-13T18:14:38.317Z,99258.69
2022-09-13T18:17:13.332Z,99264.88
2022-09-13T18:19:46.657Z,99268.63
2022-09-13T18:22:14.932Z,99269.53
2022-09-13T18:24:43.158Z,99261.97
2022-09-13T18:27:11.165Z,99275.88
2022-09-13T18:29:39.360Z,99273.12
2022-09-13T18:32:08.108Z,99271.94
2022-09-13T18:34:35.956Z,99272.81
2022-09-13T18:37:03.860Z,99287.16
2022-09-13T18:39:33.136Z,99281.72
2022-09-13T18:42:01.477Z,99281.72
2022-09-13T18:44:30.715Z,99288.09
2022-09-13T18:46:59.115Z,99292.03
2022-09-13T18:49:26.848Z,99287.72
2022-09-13T18:51:54.787Z,99291.50
2022-09-13T18:54:23.039Z,99293.97
2022-09-13T18:56:50.746Z,99295.16
2022-09-13T18:59:18.708Z,99291.41
2022-09-13T19:01:49.021Z,99288.41
2022-09-13T19:04:19.194Z,99289.38
2022-09-13T19:06:49.674Z,99291.13
2022-09-13T19:09:19.977Z,99288.78
2022-09-13T19:11:50.026Z,99286.56
2022-09-13T19:14:23.991Z,99288.25
2022-09-13T19:16:53.706Z,99288.88
2022-09-13T19:19:21.803Z,99284.28
2022-09-13T19:21:50.336Z,99284.28
2022-09-13T19:24:19.887Z,99282.03
2022-09-13T19:26:51.489Z,99279.28
2022-09-13T19:29:23.176Z,99288.84
2022-09-13T19:31:52.876Z,99289.50
2022-09-13T19:34:22.462Z,99291.72
2022-09-13T19:36:53.901Z,99282.84
2022-09-13T19:39:27.041Z,99278.69
2022-09-13T19:41:57.166Z,99290.22
2022-09-13T19:44:25.735Z,99281.50
2022-09-13T19:47:23.811Z,99283.41
2022-09-13T19:49:49.874Z,99280.75
2022-09-13T19:52:17.609Z,99269.81
2022-09-13T19:54:45.679Z,99280.53
2022-09-13T19:57:17.343Z,99268.69
2022-09-13T19:59:45.088Z,99276.37
2022-09-13T20:02:13.436Z,99285.72
2022-09-13T20:04:41.845Z,99272.69
2022-09-13T20:07:12.489Z,99276.22
2022-09-13T20:09:42.418Z,99270.59
2022-09-13T20:12:13.852Z,99274.16
2022-09-13T20:14:41.720Z,99270.59
2022-09-13T20:17:12.552Z,99271.25
2022-09-13T20:19:44.871Z,99268.13
2022-09-13T20:22:15.817Z,99282.03
2022-09-13T20:24:43.812Z,99276.37
2022-09-13T20:27:11.848Z,99277.66
2022-09-13T20:29:40.639Z,99275.59
2022-09-13T20:32:09.793Z,99273.28
2022-09-13T20:34:38.065Z,99267.91
2022-09-13T20:37:06.236Z,99270.81
2022-09-13T20:39:34.706Z,99272.69
2022-09-13T20:42:02.644Z,99264.78
2022-09-13T20:44:30.635Z,99266.66
2022-09-13T20:46:59.028Z,99267.03
2022-09-13T20:49:26.918Z,99269.16
2022-09-13T20:51:54.608Z,99273.94
2022-09-13T20:54:22.365Z,99264.59
2022-09-13T20:56:49.764Z,99268.72
2022-09-13T20:59:17.193Z,99266.84
2022-09-13T21:01:44.884Z,99266.06
2022-09-13T21:04:12.329Z,99270.44
2022-09-13T21:07:01.745Z,99265.84
2022-09-13T21:09:29.702Z,99271.22
2022-09-13T21:11:57.367Z,99267.13
2022-09-13T21:14:24.746Z,99258.38
2022-09-13T21:16:52.502Z,99259.78
2022-09-13T21:19:19.935Z,99258.53
2022-09-13T21:21:47.455Z,99256.28
2022-09-13T21:24:15.169Z,99250.94
2022-09-13T21:26:42.721Z,99247.81
2022-09-13T21:29:11.513Z,99252.13
2022-09-13T21:31:40.199Z,99250.88
2022-09-13T21:34:12.571Z,99250.84
2022-09-13T21:36:40.762Z,99249.38
2022-09-13T21:39:08.169Z,99250.41
2022-09-13T21:41:35.554Z,99249.66
2022-09-13T21:44:03.511Z,99247.37
2022-09-13T21:46:34.115Z,99239.09
2022-09-13T21:49:04.839Z,99245.75
2022-09-13T21:51:41.327Z,99252.78
2022-09-13T21:54:11.934Z,99253.41
2022-09-13T21:56:42.248Z,99240.78
2022-09-13T21:59:16.809Z,99244.47
2022-09-13T22:01:47.832Z,99248.88
2022-09-13T22:04:19.119Z,99245.28
2022-09-13T22:06:47.969Z,99243.84
2022-09-13T22:09:15.822Z,99244.66
2022-09-13T22:11:45.066Z,99232.63
2022-09-13T22:14:15.017Z,99228.34
2022-09-13T22:16:44.061Z,99234.09
2022-09-13T22:19:14.139Z,99226.03
2022-09-13T22:21:44.585Z,99226.88
2022-09-13T22:24:15.938Z,99219.84
2022-09-13T22:26:43.838Z,99213.59
2022-09-13T22:29:11.604Z,99222.06
2022-09-13T22:31:40.730Z,99224.13
2022-09-13T22:34:11.706Z,99214.44
2022-09-13T22:36:39.872Z,99213.63
2022-09-13T22:39:07.508Z,99214.75
2022-09-13T22:41:35.281Z,99209.53
2022-09-13T22:44:03.606Z,99208.16
2022-09-13T22:46:36.258Z,99204.44
2022-09-13T22:49:04.665Z,99203.03
2022-09-13T22:51:32.330Z,99210.41
2022-09-13T22:54:03.709Z,99209.59
2022-09-13T22:56:36.827Z,99203.22
2022-09-13T22:59:13.178Z,99208.31
2022-09-13T23:01:41.073Z,99212.91
2022-09-13T23:04:08.523Z,99212.44
2022-09-13T23:06:36.030Z,99208.97
2022-09-13T23:09:05.838Z,99208.97
2022-09-13T23:11:35.956Z,99211.34
2022-09-13T23:14:06.195Z,99212.62
2022-09-13T23:16:38.159Z,99214.81
2022-09-13T23:19:06.251Z,99217.88
2022-09-13T23:21:36.016Z,99213.47
2022-09-13T23:24:04.762Z,99211.91
2022-09-13T23:26:33.497Z,99215.19
2022-09-13T23:29:02.271Z,99210.19
2022-09-13T23:31:32.212Z,99203.75
2022-09-13T23:34:02.192Z,99209.75
2022-09-13T23:36:37.175Z,99211.91
2022-09-13T23:39:08.254Z,99209.44
2022-09-13T23:41:35.940Z,99214.06
2022-09-13T23:44:03.721Z,99216.94
2022-09-13T23:46:31.483Z,99217.66
2022-09-13T23:48:58.873Z,99217.81
2022-09-13T23:51:27.134Z,99217.41
2022-09-13T23:54:00.945Z,99202.66
2022-09-13T23:56:30.145Z,99197.84
2022-09-13T23:58:59.147Z,99198.47
